createdAt,value
2018-03-23T00:01:14.549Z,388.62
2018-03-23T00:03:40.919Z,365.00
2018-03-23T00:06:07.420Z,357.52
2018-03-23T00:08:33.840Z,349.20
2018-03-23T00:11:00.186Z,371.95
2018-03-23T00:13:26.558Z,311.58
2018-03-23T00:15:53.011Z,366.65
2018-03-23T00:18:19.644Z,308.63
2018-03-23T00:20:46.142Z,379.92
2018-03-23T00:23:12.531Z,321.05
2018-03-23T00:25:39.001Z,403.15
2018-03-23T00:28:05.361Z,337.65
2018-03-23T00:30:31.685Z,310.77
2018-03-23T00:32:58.072Z,367.92
2018-03-23T00:35:24.405Z,400.87
2018-03-23T00:37:51.581Z,367.23
2018-03-23T00:40:18.309Z,376.00
2018-03-23T00:42:45.475Z,375.85
2018-03-23T00:45:11.873Z,386.55
2018-03-23T00:47:38.231Z,351.58
2018-03-23T00:50:06.157Z,393.12
2018-03-23T00:52:32.515Z,380.20
2018-03-23T00:54:59.582Z,325.15
2018-03-23T00:57:26.051Z,383.10
2018-03-23T00:59:53.554Z,364.95
2018-03-23T01:02:20.103Z,415.27
2018-03-23T01:04:47.262Z,410.77
2018-03-23T01:07:13.694Z,333.67
2018-03-23T01:09:40.125Z,381.65
2018-03-23T01:12:06.550Z,369.52
2018-03-23T01:14:33.069Z,339.08
2018-03-23T01:16:59.557Z,355.67
2018-03-23T01:19:26.066Z,284.92
2018-03-23T01:21:53.321Z,310.52
2018-03-23T01:24:19.805Z,338.62
2018-03-23T01:26:46.723Z,311.17
2018-03-23T01:29:13.861Z,282.10
2018-03-23T01:31:40.261Z,300.42
2018-03-23T01:34:06.690Z,320.30
2018-03-23T01:36:33.693Z,280.10
2018-03-23T01:39:00.069Z,331.83
2018-03-23T01:41:26.412Z,296.83
2018-03-23T01:43:52.831Z,303.73
2018-03-23T01:46:19.364Z,299.37
2018-03-23T01:48:45.704Z,285.73
2018-03-23T01:51:12.118Z,331.70
2018-03-23T01:53:42.384Z,283.45
2018-03-23T01:56:08.770Z,250.87
2018-03-23T01:58:35.103Z,269.10
2018-03-23T02:01:01.475Z,268.15
2018-03-23T02:03:28.573Z,275.65
2018-03-23T02:05:55.782Z,297.20
2018-03-23T02:08:22.923Z,247.37
2018-03-23T02:10:49.449Z,298.73
2018-03-23T02:13:15.813Z,288.20
2018-03-23T02:15:42.152Z,270.05
2018-03-23T02:18:08.561Z,272.67
2018-03-23T02:20:35.025Z,256.52
2018-03-23T02:23:01.434Z,296.12
2018-03-23T02:25:27.866Z,242.60
2018-03-23T02:27:55.234Z,265.83
2018-03-23T02:30:22.381Z,253.00
2018-03-23T02:32:49.384Z,262.12
2018-03-23T02:35:17.093Z,266.73
2018-03-23T02:37:43.486Z,248.45
2018-03-23T02:40:09.950Z,249.43
2018-03-23T02:42:37.333Z,249.40
2018-03-23T02:45:03.757Z,290.25
2018-03-23T02:47:30.143Z,248.23
2018-03-23T02:49:56.717Z,244.25
2018-03-23T02:52:23.111Z,216.32
2018-03-23T02:54:49.501Z,211.35
2018-03-23T02:57:16.795Z,236.65
2018-03-23T02:59:43.964Z,256.65
2018-03-23T03:02:12.063Z,239.35
2018-03-23T03:04:38.555Z,263.73
2018-03-23T03:07:05.005Z,252.07
2018-03-23T03:09:31.378Z,303.73
2018-03-23T03:11:58.504Z,275.75
2018-03-23T03:14:24.941Z,273.50
2018-03-23T03:16:51.416Z,248.93
2018-03-23T03:19:17.901Z,229.90
2018-03-23T03:21:44.351Z,243.30
2018-03-23T03:24:10.821Z,291.12
2018-03-23T03:26:37.240Z,256.65
2018-03-23T03:29:03.747Z,263.98
2018-03-23T03:31:30.904Z,306.98
2018-03-23T03:33:57.333Z,293.77
2018-03-23T03:36:23.769Z,390.85
2018-03-23T03:38:50.174Z,326.95
2018-03-23T03:41:17.584Z,341.95
2018-03-23T03:43:44.084Z,400.38
2018-03-23T03:46:10.599Z,397.88
2018-03-23T03:48:37.110Z,309.62
2018-03-23T03:51:03.486Z,326.85
2018-03-23T03:53:30.458Z,316.33
2018-03-23T03:55:57.586Z,382.45
2018-03-23T03:58:24.015Z,359.87
2018-03-23T04:00:50.454Z,376.00
2018-03-23T04:03:16.857Z,360.50
2018-03-23T04:05:44.046Z,330.73
2018-03-23T04:08:10.578Z,299.90
2018-03-23T04:10:36.953Z,374.98
2018-03-23T04:13:03.319Z,336.00
2018-03-23T04:15:29.717Z,344.60
2018-03-23T04:17:56.130Z,333.08
2018-03-23T04:20:22.671Z,330.50
2018-03-23T04:22:49.071Z,379.05
2018-03-23T04:25:15.489Z,312.02
2018-03-23T04:27:42.026Z,288.75
2018-03-23T04:30:09.191Z,288.12
2018-03-23T04:32:36.145Z,321.65
2018-03-23T04:35:02.367Z,328.20
2018-03-23T04:37:28.519Z,342.27
2018-03-23T04:39:54.753Z,349.00
2018-03-23T04:42:20.981Z,351.60
2018-03-23T04:44:47.283Z,310.27
2018-03-23T04:47:13.443Z,331.45
2018-03-23T04:49:39.664Z,356.92
2018-03-23T04:52:05.882Z,378.42
2018-03-23T04:54:32.084Z,320.02
2018-03-23T04:56:58.456Z,438.67
2018-03-23T04:59:24.665Z,340.52
2018-03-23T05:01:50.893Z,397.67
2018-03-23T05:04:17.117Z,407.17
2018-03-23T05:06:44.188Z,350.83
2018-03-23T05:09:10.391Z,400.55
2018-03-23T05:11:37.302Z,384.23
2018-03-23T05:14:03.464Z,382.48
2018-03-23T05:16:29.623Z,387.48
2018-03-23T05:18:56.764Z,435.20
2018-03-23T05:21:23.806Z,426.35
2018-03-23T05:23:50.049Z,477.60
2018-03-23T05:26:16.295Z,389.70
2018-03-23T05:28:43.482Z,447.73
2018-03-23T05:31:09.697Z,491.55
2018-03-23T05:33:35.924Z,481.67
2018-03-23T05:36:02.164Z,444.90
2018-03-23T05:38:28.587Z,507.00
2018-03-23T05:40:55.025Z,447.52
2018-03-23T05:43:21.560Z,495.25
2018-03-23T05:45:48.052Z,590.97
2018-03-23T05:48:15.277Z,570.72
2018-03-23T05:50:42.377Z,506.25
2018-03-23T05:53:08.897Z,527.47
2018-03-23T05:55:35.161Z,484.23
2018-03-23T05:58:01.611Z,517.90
2018-03-23T06:00:28.067Z,453.98
2018-03-23T06:02:54.608Z,619.28
2018-03-23T06:05:21.063Z,531.22
2018-03-23T06:07:47.599Z,563.55
2018-03-23T06:10:14.102Z,549.12
2018-03-23T06:12:40.657Z,595.83
2018-03-23T06:15:07.168Z,557.03
2018-03-23T06:17:33.602Z,559.50
2018-03-23T06:20:00.370Z,577.88
2018-03-23T06:22:26.816Z,591.65
2018-03-23T06:24:53.354Z,555.60
2018-03-23T06:27:20.528Z,619.55
2018-03-23T06:29:47.725Z,551.35
2018-03-23T06:32:14.112Z,570.12
2018-03-23T06:34:41.260Z,627.35
2018-03-23T06:37:08.741Z,583.58
2018-03-23T06:39:35.122Z,731.17
2018-03-23T06:42:01.566Z,558.60
2018-03-23T06:44:28.718Z,548.42
2018-03-23T06:46:55.126Z,570.15
2018-03-23T06:49:22.720Z,525.50
2018-03-23T06:51:49.165Z,605.63
2018-03-23T06:54:15.795Z,507.65
2018-03-23T06:56:42.196Z,503.95
2018-03-23T06:59:08.422Z,523.55
2018-03-23T07:01:34.642Z,512.80
2018-03-23T07:04:00.815Z,548.13
2018-03-23T07:06:27.870Z,507.48
2018-03-23T07:08:54.831Z,475.05
2018-03-23T07:11:21.768Z,470.45
2018-03-23T07:13:47.929Z,477.70
2018-03-23T07:16:14.121Z,479.77
2018-03-23T07:18:40.413Z,465.58
2018-03-23T07:21:06.687Z,457.92
2018-03-23T07:23:32.895Z,462.85
2018-03-23T07:25:59.076Z,502.20
2018-03-23T07:28:25.310Z,395.08
2018-03-23T07:30:51.578Z,449.85
2018-03-23T07:33:17.897Z,392.80
2018-03-23T07:35:44.080Z,402.70
2018-03-23T07:38:10.305Z,374.77
2018-03-23T07:40:36.537Z,405.50
2018-03-23T07:43:02.780Z,374.48
2018-03-23T07:45:29.028Z,420.30
2018-03-23T07:47:56.227Z,364.60
2018-03-23T07:50:23.250Z,394.25
2018-03-23T07:52:49.517Z,394.52
2018-03-23T07:55:15.767Z,355.30
2018-03-23T07:57:42.510Z,455.87
2018-03-23T08:00:09.694Z,344.17
2018-03-23T08:02:36.081Z,346.05
2018-03-23T08:05:02.334Z,317.15
2018-03-23T08:07:28.563Z,354.45
2018-03-23T08:09:55.629Z,326.77
2018-03-23T08:12:21.952Z,350.52
2018-03-23T08:14:48.369Z,288.42
2018-03-23T08:17:14.567Z,339.17
2018-03-23T08:19:40.756Z,281.45
2018-03-23T08:22:07.013Z,348.30
2018-03-23T08:24:34.036Z,392.20
2018-03-23T08:27:01.038Z,294.90
2018-03-23T08:29:27.529Z,275.30
2018-03-23T08:31:53.994Z,251.95
2018-03-23T08:34:20.243Z,303.10
2018-03-23T08:36:47.194Z,286.60
2018-03-23T08:39:14.122Z,263.48
2018-03-23T08:41:41.219Z,243.55
2018-03-23T08:44:07.473Z,287.25
2018-03-23T08:46:33.667Z,280.12
2018-03-23T08:48:59.818Z,317.08
2018-03-23T08:51:26.751Z,317.37
2018-03-23T08:53:54.976Z,245.27
2018-03-23T08:56:21.218Z,253.55
2018-03-23T08:58:47.600Z,226.35
2018-03-23T09:01:13.900Z,250.18
2018-03-23T09:03:43.403Z,273.48
2018-03-23T09:06:09.663Z,249.27
2018-03-23T09:08:36.543Z,216.02
2018-03-23T09:11:02.736Z,227.77
2018-03-23T09:13:28.984Z,273.77
2018-03-23T09:15:55.931Z,241.48
2018-03-23T09:18:22.115Z,242.23
2018-03-23T09:20:48.336Z,205.37
2018-03-23T09:23:15.293Z,183.85
2018-03-23T09:25:42.186Z,194.35
2018-03-23T09:28:13.953Z,185.88
2018-03-23T09:30:40.181Z,202.98
2018-03-23T09:33:06.399Z,202.87
2018-03-23T09:35:32.606Z,196.30
2018-03-23T09:37:58.843Z,214.27
2018-03-23T09:40:25.189Z,205.10
2018-03-23T09:42:54.735Z,176.05
2018-03-23T09:45:21.100Z,173.32
2018-03-23T09:47:47.304Z,184.32
2018-03-23T09:50:13.514Z,171.60
2018-03-23T09:52:39.802Z,166.75
2018-03-23T09:55:06.836Z,151.48
2018-03-23T09:57:33.065Z,153.95
2018-03-23T10:00:01.726Z,147.90
2018-03-23T10:02:27.994Z,138.07
2018-03-23T10:04:54.322Z,146.18
2018-03-23T10:07:21.359Z,132.93
2018-03-23T10:09:48.373Z,133.43
2018-03-23T10:12:15.158Z,140.32
2018-03-23T10:14:41.436Z,139.37
2018-03-23T10:17:07.663Z,138.82
2018-03-23T10:19:36.611Z,132.00
2018-03-23T10:22:03.581Z,137.32
2018-03-23T10:24:29.804Z,153.32
2018-03-23T10:26:56.041Z,137.60
2018-03-23T10:29:22.327Z,139.80
2018-03-23T10:31:48.493Z,141.43
2018-03-23T10:34:14.699Z,147.13
2018-03-23T10:36:45.729Z,132.75
2018-03-23T10:39:12.583Z,120.18
2018-03-23T10:41:39.827Z,127.38
2018-03-23T10:44:06.124Z,122.82
2018-03-23T10:46:32.561Z,123.75
2018-03-23T10:48:58.772Z,114.40
2018-03-23T10:51:25.012Z,130.87
2018-03-23T10:56:23.771Z,125.10
2018-03-23T10:58:51.073Z,119.43
2018-03-23T11:01:23.510Z,114.65
2018-03-23T11:03:50.014Z,118.72
2018-03-23T11:06:16.268Z,113.62
2018-03-23T11:08:46.545Z,128.38
2018-03-23T11:11:12.878Z,128.27
2018-03-23T11:13:39.292Z,108.03
2018-03-23T11:16:05.487Z,111.12
2018-03-23T11:18:32.711Z,115.37
2018-03-23T11:20:59.045Z,110.60
2018-03-23T11:23:33.125Z,114.28
2018-03-23T11:25:59.501Z,99.13
2018-03-23T11:28:25.802Z,117.45
2018-03-23T11:30:52.308Z,111.35
2018-03-23T11:33:19.626Z,111.57
2018-03-23T11:35:45.983Z,114.60
2018-03-23T11:38:20.159Z,114.78
2018-03-23T11:40:46.439Z,120.00
2018-03-23T11:43:12.766Z,120.65
2018-03-23T11:45:39.009Z,110.32
2018-03-23T11:48:05.285Z,121.87
2018-03-23T11:50:31.843Z,122.80
2018-03-23T11:52:59.178Z,119.10
2018-03-23T11:55:26.450Z,105.18
2018-03-23T11:57:52.898Z,109.90
2018-03-23T12:00:19.267Z,86.90
2018-03-23T12:02:45.561Z,88.60
2018-03-23T12:05:11.778Z,92.95
2018-03-23T12:07:38.069Z,86.10
2018-03-23T12:10:04.457Z,81.05
2018-03-23T12:12:30.654Z,77.15
2018-03-23T12:14:56.931Z,84.70
2018-03-23T12:17:25.425Z,79.65
2018-03-23T12:19:51.790Z,87.00
2018-03-23T12:22:18.149Z,86.80
2018-03-23T12:24:44.341Z,77.82
2018-03-23T12:27:10.541Z,70.07
2018-03-23T12:29:36.780Z,72.57
2018-03-23T12:32:03.030Z,75.35
2018-03-23T12:34:29.263Z,75.20
2018-03-23T12:37:01.636Z,90.20
2018-03-23T12:39:27.932Z,81.32
2018-03-23T12:41:54.204Z,75.43
2018-03-23T12:44:20.545Z,88.78
2018-03-23T12:46:46.818Z,72.03
2018-03-23T12:49:13.084Z,70.07
2018-03-23T12:51:39.486Z,72.68
2018-03-23T12:54:05.911Z,66.00
2018-03-23T12:56:35.483Z,63.45
2018-03-23T12:59:02.565Z,71.80
2018-03-23T13:01:28.825Z,64.22
2018-03-23T13:03:55.049Z,62.83
2018-03-23T13:06:21.385Z,63.42
2018-03-23T13:08:47.735Z,68.55
2018-03-23T13:11:14.086Z,63.78
2018-03-23T13:13:42.065Z,58.38
2018-03-23T13:16:10.066Z,64.25
2018-03-23T13:18:36.435Z,56.40
2018-03-23T13:21:02.723Z,61.08
2018-03-23T13:23:28.951Z,53.55
2018-03-23T13:25:55.317Z,61.28
2018-03-23T13:28:21.611Z,53.90
2018-03-23T13:30:47.880Z,53.22
2018-03-23T13:33:14.285Z,48.53
2018-03-23T13:35:44.092Z,49.05
2018-03-23T13:38:10.435Z,47.42
2018-03-23T13:40:36.760Z,46.10
2018-03-23T13:43:03.798Z,49.08
2018-03-23T13:45:31.011Z,50.47
2018-03-23T13:47:57.287Z,47.25
2018-03-23T13:50:23.664Z,42.08
2018-03-23T13:52:56.420Z,43.40
2018-03-23T13:55:22.884Z,49.25
2018-03-23T13:57:49.290Z,42.70
2018-03-23T14:00:21.745Z,46.75
2018-03-23T14:02:48.162Z,38.22
2018-03-23T14:05:14.521Z,39.05
2018-03-23T14:07:44.202Z,41.88
2018-03-23T14:10:10.480Z,39.53
2018-03-23T14:12:36.928Z,41.60
2018-03-23T14:15:03.294Z,38.90
2018-03-23T14:17:29.834Z,40.67
2018-03-23T14:19:56.522Z,36.85
2018-03-23T14:22:23.039Z,34.35
2018-03-23T14:24:50.364Z,43.55
2018-03-23T14:27:20.684Z,39.60
2018-03-23T14:29:47.148Z,36.33
2018-03-23T14:32:13.540Z,37.50
2018-03-23T14:34:40.989Z,42.33
2018-03-23T14:37:10.472Z,36.20
2018-03-23T14:39:45.848Z,36.90
2018-03-23T14:42:12.697Z,33.97
2018-03-23T14:44:39.253Z,37.67
2018-03-23T14:47:05.922Z,31.80
2018-03-23T14:49:32.695Z,34.53
2018-03-23T14:51:59.383Z,37.22
2018-03-23T14:54:25.904Z,35.75
2018-03-23T14:56:58.301Z,37.42
2018-03-23T15:05:12.427Z,37.22
2018-03-23T15:10:43.962Z,37.30
2018-03-23T15:13:11.935Z,31.98
2018-03-23T15:15:41.256Z,33.42
2018-03-23T15:18:11.030Z,32.80
2018-03-23T15:20:37.339Z,34.80
2018-03-23T15:23:03.795Z,36.95
2018-03-23T15:25:30.027Z,37.72
2018-03-23T15:27:56.201Z,37.67
2018-03-23T15:30:26.221Z,29.23
2018-03-23T15:32:53.972Z,36.97
2018-03-23T15:35:20.229Z,43.20
2018-03-23T15:37:46.619Z,37.25
2018-03-23T15:40:15.132Z,39.20
2018-03-23T15:42:41.904Z,44.35
2018-03-23T15:45:08.164Z,35.30
2018-03-23T15:47:42.508Z,33.85
2018-03-23T15:50:09.026Z,34.67
2018-03-23T15:52:36.177Z,42.28
2018-03-23T15:55:02.681Z,37.00
2018-03-23T15:57:32.707Z,35.78
2018-03-23T15:59:59.113Z,40.35
2018-03-23T16:02:29.221Z,36.20
2018-03-23T16:04:55.818Z,34.60
2018-03-23T16:07:22.295Z,38.78
2018-03-23T16:09:48.782Z,38.35
2018-03-23T16:12:15.174Z,29.35
2018-03-23T16:14:43.117Z,35.65
2018-03-23T16:17:23.291Z,33.58
2018-03-23T16:19:49.766Z,31.12
2018-03-23T16:22:16.594Z,29.50
2018-03-23T16:24:44.051Z,33.80
2018-03-23T16:27:11.836Z,35.17
2018-03-23T16:29:38.421Z,29.55
2018-03-23T16:32:10.086Z,33.58
2018-03-23T16:34:37.560Z,29.65
2018-03-23T16:40:17.331Z,31.75
2018-03-23T16:42:50.391Z,26.55
2018-03-23T16:45:18.533Z,26.10
2018-03-23T16:50:45.391Z,26.98
2018-03-23T16:53:11.877Z,24.37
2018-03-23T16:55:57.787Z,26.90
2018-03-23T16:58:24.519Z,62.33
2018-03-23T17:00:53.142Z,30.08
2018-03-23T17:03:20.289Z,139.60
2018-03-23T17:05:53.730Z,157.75
2018-03-23T17:08:23.455Z,72.62
2018-03-23T17:11:00.267Z,141.18
2018-03-23T17:13:33.467Z,28.67
2018-03-23T17:16:00.858Z,48.60
2018-03-23T17:18:27.144Z,31.08
2018-03-23T17:20:54.428Z,1248.22
2018-03-23T17:23:20.854Z,867.37
2018-03-23T17:25:47.373Z,97.15
2018-03-23T17:31:06.151Z,166.90
2018-03-23T17:33:34.277Z,31.52
2018-03-23T17:38:45.667Z,24.67
2018-03-23T17:41:19.228Z,29.33
2018-03-23T17:43:53.954Z,29.83
2018-03-23T17:58:20.462Z,26.98
2018-03-23T18:00:48.257Z,31.35
2018-03-23T18:03:21.216Z,34.95
2018-03-23T18:14:43.745Z,24.12
2018-03-23T18:23:46.574Z,33.42
2018-03-23T18:26:21.115Z,21.30
2018-03-23T18:28:47.470Z,22.85
2018-03-23T18:31:14.097Z,19.80
2018-03-23T18:39:25.129Z,25.65
2018-03-23T18:41:51.584Z,25.05
2018-03-23T18:44:19.015Z,51.55
2018-03-23T18:46:45.421Z,30.23
2018-03-23T18:49:11.906Z,71.18
2018-03-23T18:51:38.333Z,24.35
2018-03-23T18:54:04.749Z,17.48
2018-03-23T18:56:31.389Z,23.52
2018-03-23T18:58:58.542Z,20.08
2018-03-23T19:01:24.990Z,24.02
2018-03-23T19:03:52.653Z,19.35
2018-03-23T19:06:19.396Z,19.40
2018-03-23T19:08:46.162Z,19.95
2018-03-23T19:11:12.661Z,19.05
2018-03-23T19:13:39.668Z,24.40
2018-03-23T19:16:06.105Z,21.83
2018-03-23T19:18:32.495Z,19.15
2018-03-23T19:20:58.955Z,19.92
2018-03-23T19:23:25.493Z,18.00
2018-03-23T19:25:51.906Z,19.92
2018-03-23T19:28:19.220Z,17.60
2018-03-23T19:30:45.696Z,21.27
2018-03-23T19:33:12.198Z,22.13
2018-03-23T19:35:39.349Z,21.27
2018-03-23T19:38:06.603Z,24.83
2018-03-23T19:40:33.076Z,22.23
2018-03-23T19:42:59.669Z,22.85
2018-03-23T19:45:26.153Z,20.48
2018-03-23T19:47:53.522Z,21.55
2018-03-23T19:50:21.724Z,24.12
2018-03-23T19:52:49.002Z,21.30
2018-03-23T19:55:19.242Z,21.08
2018-03-23T19:57:48.978Z,25.85
2018-03-23T20:00:15.743Z,22.87
2018-03-23T20:02:42.619Z,20.77
2018-03-23T20:05:12.327Z,21.60
2018-03-23T20:07:39.050Z,23.00
2018-03-23T20:10:05.654Z,21.50
2018-03-23T20:12:32.122Z,21.52
2018-03-23T20:14:59.325Z,23.65
2018-03-23T20:17:31.876Z,21.42
2018-03-23T20:19:58.337Z,20.08
2018-03-23T20:22:24.762Z,20.85
2018-03-23T20:24:51.869Z,25.27
2018-03-23T20:27:24.349Z,24.12
2018-03-23T20:29:50.713Z,20.05
2018-03-23T20:32:25.544Z,26.17
2018-03-23T20:34:52.677Z,23.73
2018-03-23T20:37:19.254Z,20.00
2018-03-23T20:39:45.660Z,18.98
2018-03-23T20:42:12.754Z,20.67
2018-03-23T20:44:39.142Z,21.77
2018-03-23T20:47:06.398Z,20.35
2018-03-23T20:49:37.529Z,24.83
2018-03-23T20:52:04.089Z,21.85
2018-03-23T20:54:30.558Z,19.52
2018-03-23T20:56:57.750Z,22.95
2018-03-23T20:59:24.954Z,18.12
2018-03-23T21:01:51.501Z,19.60
2018-03-23T21:04:21.410Z,26.20
2018-03-23T21:06:48.641Z,23.15
2018-03-23T21:09:15.416Z,26.10
2018-03-23T21:11:41.695Z,21.75
2018-03-23T21:14:08.184Z,17.00
2018-03-23T21:16:34.697Z,18.27
2018-03-23T21:19:01.103Z,22.13
2018-03-23T21:21:27.488Z,18.80
2018-03-23T21:23:54.657Z,22.67
2018-03-23T21:26:21.104Z,19.98
2018-03-23T21:28:48.271Z,19.50
2018-03-23T21:31:14.652Z,23.85
2018-03-23T21:33:41.116Z,23.73
2018-03-23T21:36:07.900Z,23.55
2018-03-23T21:38:34.498Z,19.77
2018-03-23T21:41:00.946Z,22.52
2018-03-23T21:43:27.718Z,21.02
2018-03-23T21:45:54.162Z,18.05
2018-03-23T21:48:20.574Z,25.70
2018-03-23T21:50:46.992Z,21.30
2018-03-23T21:53:14.101Z,23.00
2018-03-23T21:55:40.552Z,23.60
2018-03-23T21:58:07.062Z,23.05
2018-03-23T22:00:33.770Z,28.98
2018-03-23T22:03:01.386Z,19.87
2018-03-23T22:05:28.338Z,22.98
2018-03-23T22:07:54.903Z,22.08
2018-03-23T22:10:22.597Z,24.65
2018-03-23T22:12:49.833Z,22.60
2018-03-23T22:15:16.301Z,24.92
2018-03-23T22:17:46.309Z,20.45
2018-03-23T22:20:13.398Z,20.77
2018-03-23T22:22:39.819Z,19.83
2018-03-23T22:25:06.310Z,24.20
2018-03-23T22:27:32.742Z,23.33
2018-03-23T22:29:59.334Z,20.83
2018-03-23T22:32:26.499Z,22.45
2018-03-23T22:34:53.007Z,20.95
2018-03-23T22:37:19.680Z,21.33
2018-03-23T22:39:46.226Z,21.05
2018-03-23T22:42:12.896Z,19.27
2018-03-23T22:44:39.496Z,22.13
2018-03-23T22:47:05.938Z,21.67
2018-03-23T22:49:32.433Z,23.87
2018-03-23T22:51:58.866Z,25.15
2018-03-23T22:54:26.075Z,22.75
2018-03-23T22:56:52.574Z,23.23
2018-03-23T22:59:19.002Z,22.67
2018-03-23T23:01:45.586Z,25.05
2018-03-23T23:04:12.958Z,21.65
2018-03-23T23:06:40.133Z,22.77
2018-03-23T23:09:06.807Z,22.37
2018-03-23T23:11:33.917Z,20.00
2018-03-23T23:14:00.417Z,20.08
2018-03-23T23:16:27.497Z,20.88
2018-03-23T23:18:53.903Z,19.52
2018-03-23T23:21:27.590Z,18.75
2018-03-23T23:23:54.188Z,19.17
2018-03-23T23:26:20.585Z,16.20
2018-03-23T23:28:47.065Z,18.40
2018-03-23T23:31:13.617Z,20.00
2018-03-23T23:33:40.335Z,15.95
2018-03-23T23:36:06.860Z,16.67
2018-03-23T23:38:33.228Z,14.35
2018-03-23T23:41:00.407Z,14.27
2018-03-23T23:43:27.666Z,19.92
2018-03-23T23:45:54.804Z,15.27
2018-03-23T23:48:22.300Z,18.90
2018-03-23T23:50:49.323Z,16.20
2018-03-23T23:53:15.620Z,16.30
2018-03-23T23:55:41.958Z,16.37
2018-03-23T23:58:08.186Z,13.93
